Time;durP1;ratioP1;P1;durP2;ratioP2;P2;SDS_P1;SDS_P2;PMS_P1;PMS_P2;Temp;Humidity;BMP_temperature;BMP_pressure;BME280_temperature;BME280_humidity;BME280_pressure;Samples;Min_cycle;Max_cycle;Signal;HPM_P1;HPM_P2
2023/09/21 00:00:13;;;;;;;5.03;3.40;;;17.80;99.90;;;;;;5034250;28;20751;-72
2023/09/21 00:02:41;;;;;;;4.43;3.60;;;17.80;99.90;;;;;;5034235;28;20194;-72
2023/09/21 00:05:09;;;;;;;4.93;3.37;;;17.80;99.90;;;;;;5034318;28;20681;-73
2023/09/21 00:07:36;;;;;;;4.53;3.83;;;17.80;99.90;;;;;;5037139;28;20171;-73
2023/09/21 00:10:03;;;;;;;5.50;3.60;;;17.80;99.90;;;;;;5045352;28;20175;-72
2023/09/21 00:12:29;;;;;;;4.83;3.60;;;17.70;99.90;;;;;;5034853;28;20219;-73
2023/09/21 00:14:55;;;;;;;4.13;3.60;;;17.70;99.90;;;;;;5034435;28;20253;-71
2023/09/21 00:17:21;;;;;;;4.90;3.80;;;17.70;99.90;;;;;;5034129;28;20183;-72
2023/09/21 00:19:46;;;;;;;3.63;3.43;;;17.60;99.90;;;;;;5033777;28;20278;-72
2023/09/21 00:22:12;;;;;;;9.97;3.60;;;17.60;99.90;;;;;;5033929;28;20199;-73
2023/09/21 00:24:37;;;;;;;3.60;3.30;;;17.50;99.90;;;;;;5033972;28;20188;-72
2023/09/21 00:27:03;;;;;;;4.30;3.70;;;17.50;99.90;;;;;;5034016;28;20521;-72
2023/09/21 00:29:30;;;;;;;3.90;3.60;;;17.40;99.90;;;;;;5033369;28;20178;-72
2023/09/21 00:31:57;;;;;;;3.73;3.43;;;17.40;99.90;;;;;;5033986;28;20193;-71
2023/09/21 00:34:24;;;;;;;4.87;3.70;;;17.40;99.90;;;;;;5033641;28;20183;-71
2023/09/21 00:36:50;;;;;;;5.93;3.43;;;17.30;99.90;;;;;;5042142;28;20167;-72
2023/09/21 00:39:17;;;;;;;3.53;3.23;;;17.30;99.90;;;;;;5033579;28;20210;-72
2023/09/21 00:41:43;;;;;;;3.70;3.40;;;17.30;99.90;;;;;;5033597;28;20617;-73
2023/09/21 00:44:09;;;;;;;4.30;3.70;;;17.30;99.90;;;;;;5033617;28;20199;-73
2023/09/21 00:46:36;;;;;;;3.70;3.40;;;17.30;99.90;;;;;;5032408;28;20202;-72
2023/09/21 00:49:04;;;;;;;4.33;3.93;;;17.30;99.90;;;;;;5033569;28;20182;-72
2023/09/21 00:51:32;;;;;;;3.67;3.37;;;17.30;99.90;;;;;;5032985;28;20692;-73
2023/09/21 00:54:09;;;;;;;4.63;3.73;;;17.30;99.90;;;;;;5033469;28;20199;-73
2023/09/21 00:56:38;;;;;;;3.87;3.50;;;17.30;99.90;;;;;;5037535;28;20194;-72
2023/09/21 00:59:05;;;;;;;3.87;3.43;;;17.30;99.90;;;;;;5033229;28;20230;-73
2023/09/21 01:01:31;;;;;;;3.60;3.30;;;17.30;99.90;;;;;;5032785;28;20733;-71
2023/09/21 01:04:06;;;;;;;3.73;3.43;;;17.30;99.90;;;;;;5033233;28;20175;-72
2023/09/21 01:06:32;;;;;;;3.97;3.60;;;17.30;99.90;;;;;;5033034;28;20294;-72
2023/09/21 01:08:59;;;;;;;3.80;3.50;;;17.30;99.90;;;;;;5033141;28;20176;-73
2023/09/21 01:11:25;;;;;;;3.47;3.27;;;17.20;99.90;;;;;;5032767;28;20196;-73
2023/09/21 01:13:51;;;;;;;4.40;3.93;;;17.30;99.90;;;;;;5033012;28;20175;-73
2023/09/21 01:16:18;;;;;;;4.70;3.17;;;17.30;99.90;;;;;;5032924;28;20266;-73
2023/09/21 01:18:44;;;;;;;3.77;3.47;;;17.30;99.90;;;;;;5033084;28;20580;-72
2023/09/21 01:21:10;;;;;;;4.83;3.43;;;17.30;99.90;;;;;;5040136;28;20199;-73
2023/09/21 01:23:51;;;;;;;3.43;3.13;;;17.30;99.90;;;;;;5039018;28;20194;-72
2023/09/21 01:26:19;;;;;;;4.00;3.60;;;17.30;99.90;;;;;;5032675;28;20203;-73
2023/09/21 01:28:47;;;;;;;4.93;3.47;;;17.30;99.90;;;;;;5033862;28;20202;-74
2023/09/21 01:31:13;;;;;;;3.83;3.40;;;17.30;99.90;;;;;;5032587;28;20302;-73
2023/09/21 01:33:42;;;;;;;4.37;2.90;;;17.30;99.90;;;;;;5032367;28;20602;-73
2023/09/21 01:36:09;;;;;;;3.93;3.40;;;17.30;99.90;;;;;;5031337;28;20648;-73
2023/09/21 01:38:37;;;;;;;4.27;3.87;;;17.30;99.90;;;;;;5032505;28;20213;-72
2023/09/21 01:41:04;;;;;;;3.77;3.47;;;17.20;99.90;;;;;;5031313;28;20241;-72
2023/09/21 01:43:29;;;;;;;3.70;3.30;;;17.20;99.90;;;;;;5039147;28;20222;-74
2023/09/21 01:45:55;;;;;;;4.23;3.83;;;17.20;99.90;;;;;;5040905;28;20701;-73
2023/09/21 01:48:21;;;;;;;3.90;3.60;;;17.10;99.90;;;;;;5032247;28;20176;-73
2023/09/21 01:50:48;;;;;;;7.10;3.67;;;17.10;99.90;;;;;;5032043;28;20167;-73
2023/09/21 01:53:16;;;;;;;3.50;3.30;;;17.10;99.90;;;;;;5032300;28;20168;-73
2023/09/21 01:55:43;;;;;;;3.70;3.40;;;17.10;99.90;;;;;;5034383;28;20185;-73
2023/09/21 01:58:09;;;;;;;4.03;3.63;;;17.10;99.90;;;;;;5032090;28;20647;-73
2023/09/21 02:00:39;;;;;;;3.83;3.40;;;17.00;99.90;;;;;;5031927;28;20190;-73
2023/09/21 02:03:09;;;;;;;5.17;3.60;;;17.00;99.90;;;;;;5032119;28;20199;-74
2023/09/21 02:05:41;;;;;;;5.30;3.90;;;16.90;99.90;;;;;;5031744;28;20556;-73
2023/09/21 02:08:09;;;;;;;4.17;3.83;;;16.90;99.90;;;;;;5032036;28;20237;-73
2023/09/21 02:10:36;;;;;;;4.33;4.00;;;16.90;99.90;;;;;;5037589;28;20232;-73
2023/09/21 02:13:05;;;;;;;3.93;3.63;;;16.90;99.90;;;;;;5033958;28;20191;-73
2023/09/21 02:15:34;;;;;;;3.77;3.40;;;16.80;99.90;;;;;;5033558;28;20249;-73
2023/09/21 02:18:02;;;;;;;3.60;3.30;;;16.80;99.90;;;;;;5031968;28;20183;-73
2023/09/21 02:20:29;;;;;;;3.73;3.43;;;16.80;99.90;;;;;;5034023;28;20232;-74
2023/09/21 02:22:59;;;;;;;4.40;3.87;;;16.80;99.90;;;;;;5038312;28;20282;-73
2023/09/21 02:25:26;;;;;;;3.70;3.40;;;16.80;99.90;;;;;;5031744;28;20202;-73
2023/09/21 02:27:52;;;;;;;4.43;4.03;;;16.80;99.90;;;;;;5031701;28;20310;-73
2023/09/21 02:30:22;;;;;;;4.17;3.77;;;16.80;99.90;;;;;;5031543;28;20583;-73
2023/09/21 02:32:49;;;;;;;4.17;3.80;;;16.80;99.90;;;;;;5037520;28;20191;-73
2023/09/21 02:35:16;;;;;;;3.43;3.13;;;16.70;99.90;;;;;;5031884;28;20198;-74
2023/09/21 02:37:48;;;;;;;4.13;3.83;;;16.70;99.90;;;;;;5031443;28;20254;-73
2023/09/21 02:40:16;;;;;;;4.23;3.83;;;16.70;99.90;;;;;;5036906;28;20183;-74
2023/09/21 02:42:46;;;;;;;4.10;3.80;;;16.60;99.90;;;;;;5031246;28;20215;-73
2023/09/21 02:45:12;;;;;;;3.93;3.33;;;16.60;99.90;;;;;;5032086;28;20203;-74
2023/09/21 02:47:39;;;;;;;6.00;3.90;;;16.60;99.90;;;;;;5031449;28;20550;-73
2023/09/21 02:50:14;;;;;;;4.67;3.57;;;16.50;99.90;;;;;;5033558;28;20566;-73
2023/09/21 02:53:04;;;;;;;4.07;3.77;;;16.40;99.90;;;;;;5031365;28;20225;-73
2023/09/21 02:55:30;;;;;;;4.77;3.70;;;16.40;99.90;;;;;;5031452;28;20724;-73
2023/09/21 02:58:21;;;;;;;4.83;3.90;;;16.40;99.90;;;;;;5031277;28;20545;-73
2023/09/21 03:00:49;;;;;;;4.10;3.70;;;16.30;99.90;;;;;;5031156;28;20718;-74
2023/09/21 03:03:16;;;;;;;4.00;3.70;;;16.30;99.90;;;;;;5036258;28;20182;-73
2023/09/21 03:05:46;;;;;;;4.03;3.73;;;16.40;99.90;;;;;;5031625;28;20202;-74
2023/09/21 03:08:15;;;;;;;4.37;4.03;;;16.40;99.90;;;;;;5034021;28;20186;-73
2023/09/21 03:10:49;;;;;;;4.10;3.80;;;16.40;99.90;;;;;;5030945;28;20186;-72
2023/09/21 03:13:18;;;;;;;4.17;3.77;;;16.50;99.90;;;;;;5031251;28;20543;-72
2023/09/21 03:15:50;;;;;;;4.47;4.00;;;16.50;99.90;;;;;;5031044;28;20168;-73
2023/09/21 03:18:16;;;;;;;6.93;4.03;;;16.60;99.90;;;;;;5031203;28;20190;-73
2023/09/21 03:20:43;;;;;;;5.03;3.63;;;16.70;99.90;;;;;;5030627;28;20195;-73
2023/09/21 03:23:10;;;;;;;4.00;3.40;;;16.70;99.90;;;;;;5031261;28;20671;-74
2023/09/21 03:25:43;;;;;;;5.13;3.90;;;16.80;99.90;;;;;;5032230;28;20223;-71
2023/09/21 03:28:14;;;;;;;4.53;3.50;;;16.90;99.90;;;;;;5031412;28;20214;-74
2023/09/21 03:30:48;;;;;;;4.60;4.20;;;17.00;99.90;;;;;;5030647;28;20267;-73
2023/09/21 03:33:15;;;;;;;4.03;3.70;;;17.00;99.90;;;;;;5030958;28;20206;-73
2023/09/21 03:35:42;;;;;;;4.87;3.67;;;17.10;99.90;;;;;;5030811;28;20232;-73
2023/09/21 03:38:21;;;;;;;4.73;4.33;;;17.20;99.90;;;;;;5030959;28;20258;-73
2023/09/21 03:40:50;;;;;;;5.27;3.93;;;17.20;99.90;;;;;;5031172;28;20180;-73
2023/09/21 03:43:18;;;;;;;3.93;3.63;;;17.30;99.90;;;;;;5033454;28;20198;-73
2023/09/21 03:45:44;;;;;;;4.73;4.00;;;17.30;99.90;;;;;;5030637;28;20235;-73
2023/09/21 03:48:12;;;;;;;3.60;3.30;;;17.30;99.90;;;;;;5030952;28;20198;-73
2023/09/21 03:50:39;;;;;;;5.80;5.00;;;17.30;99.90;;;;;;5030647;28;20650;-73
2023/09/21 03:53:08;;;;;;;4.17;3.77;;;17.30;99.90;;;;;;5030749;28;20210;-72
2023/09/21 03:55:34;;;;;;;4.57;3.63;;;17.30;99.90;;;;;;5032227;28;20647;-73
2023/09/21 03:58:02;;;;;;;4.10;3.80;;;17.30;99.90;;;;;;5040232;28;20599;-72
2023/09/21 04:03:04;;;;;;;4.07;3.73;;;17.30;99.90;;;;;;5030858;28;20226;-73
2023/09/21 04:05:31;;;;;;;4.23;3.53;;;17.30;99.90;;;;;;5031084;28;20282;-73
2023/09/21 04:07:57;;;;;;;4.73;3.90;;;17.30;99.90;;;;;;5030646;28;20179;-73
2023/09/21 04:10:23;;;;;;;4.90;3.70;;;17.30;99.90;;;;;;5030615;28;20179;-72
2023/09/21 04:12:55;;;;;;;4.30;3.90;;;17.30;99.90;;;;;;5030810;28;20639;-71
2023/09/21 04:15:30;;;;;;;3.73;3.50;;;17.30;99.90;;;;;;5030717;28;20555;-73
2023/09/21 04:18:01;;;;;;;3.93;3.40;;;17.30;99.90;;;;;;5030797;28;20183;-73
2023/09/21 04:20:34;;;;;;;5.53;3.60;;;17.30;99.90;;;;;;5031217;28;20211;-74
2023/09/21 04:23:00;;;;;;;3.93;3.53;;;17.40;99.90;;;;;;5034203;28;20200;-74
2023/09/21 04:25:26;;;;;;;4.53;3.20;;;17.30;99.90;;;;;;5034009;28;20217;-74
2023/09/21 04:27:53;;;;;;;3.97;3.57;;;17.30;99.90;;;;;;5033865;28;20179;-72
2023/09/21 04:30:23;;;;;;;4.87;4.13;;;17.30;99.90;;;;;;5034036;28;20179;-72
2023/09/21 04:32:49;;;;;;;5.13;3.87;;;17.30;99.90;;;;;;5033900;28;20215;-73
2023/09/21 04:35:18;;;;;;;4.37;3.20;;;17.20;99.90;;;;;;5034058;28;20218;-72
2023/09/21 04:37:44;;;;;;;5.47;3.63;;;17.20;99.90;;;;;;5033832;28;20182;-72
2023/09/21 04:40:11;;;;;;;3.70;3.40;;;17.20;99.90;;;;;;5042313;28;20171;-72
2023/09/21 04:42:42;;;;;;;4.67;3.80;;;17.20;99.90;;;;;;5033723;28;20218;-73
2023/09/21 04:45:09;;;;;;;3.90;3.50;;;17.10;99.90;;;;;;5033613;28;20695;-73
2023/09/21 04:47:43;;;;;;;4.00;3.30;;;17.10;99.90;;;;;;5033854;28;20206;-73
2023/09/21 04:50:16;;;;;;;4.50;3.67;;;17.00;99.90;;;;;;5027832;28;20250;-73
2023/09/21 04:52:43;;;;;;;3.70;3.50;;;17.00;99.90;;;;;;5041659;28;20627;-73
2023/09/21 04:55:09;;;;;;;4.17;3.80;;;16.90;99.90;;;;;;5033661;28;20233;-74
2023/09/21 04:57:38;;;;;;;3.50;3.20;;;16.90;99.90;;;;;;5033585;28;20179;-73
2023/09/21 05:00:09;;;;;;;5.13;3.63;;;16.90;99.90;;;;;;5033070;28;20176;-72
2023/09/21 05:02:35;;;;;;;4.90;3.80;;;16.80;99.90;;;;;;5034362;28;20452;-73
2023/09/21 05:05:01;;;;;;;4.20;3.80;;;16.80;99.90;;;;;;5033571;28;20274;-73
2023/09/21 05:07:27;;;;;;;5.13;4.13;;;16.80;99.90;;;;;;5036949;28;20175;-73
2023/09/21 05:09:52;;;;;;;4.53;4.13;;;16.80;99.90;;;;;;5032782;28;20532;-73
2023/09/21 05:12:18;;;;;;;4.40;3.80;;;16.70;99.90;;;;;;5032928;28;20207;-73
2023/09/21 05:14:48;;;;;;;4.00;3.67;;;16.80;99.90;;;;;;5032775;28;20190;-74
2023/09/21 05:17:21;;;;;;;4.80;4.23;;;16.80;99.90;;;;;;5032924;28;20175;-71
2023/09/21 05:19:46;;;;;;;6.57;4.23;;;16.80;99.90;;;;;;5032639;28;20183;-71
2023/09/21 05:22:12;;;;;;;4.63;3.73;;;16.90;99.90;;;;;;5045859;28;20206;-72
2023/09/21 05:24:38;;;;;;;5.30;4.00;;;16.90;99.90;;;;;;5037532;28;20241;-72
2023/09/21 05:27:04;;;;;;;3.87;3.57;;;17.00;99.90;;;;;;5032768;28;20638;-71
2023/09/21 05:29:29;;;;;;;4.00;3.60;;;17.10;99.90;;;;;;5032377;28;20189;-71
2023/09/21 05:31:56;;;;;;;6.33;3.57;;;17.10;99.90;;;;;;5031967;28;20749;-72
2023/09/21 05:34:22;;;;;;;4.43;3.70;;;17.20;99.90;;;;;;5032699;28;20551;-72
2023/09/21 05:36:50;;;;;;;3.97;3.63;;;17.20;99.90;;;;;;5032444;28;20278;-71
2023/09/21 05:39:16;;;;;;;5.53;4.00;;;17.20;99.90;;;;;;5032470;28;20190;-71
2023/09/21 05:41:43;;;;;;;3.80;3.50;;;17.30;99.90;;;;;;5032100;28;20699;-71
2023/09/21 05:44:09;;;;;;;4.00;3.70;;;17.30;99.90;;;;;;5032312;28;20634;-71
2023/09/21 05:46:35;;;;;;;3.97;3.40;;;17.30;99.90;;;;;;5034582;28;20328;-71
2023/09/21 05:49:03;;;;;;;7.07;4.00;;;17.40;99.90;;;;;;5032171;28;20172;-70
2023/09/21 05:51:29;;;;;;;4.53;3.83;;;17.50;99.90;;;;;;5031972;28;20328;-72
2023/09/21 05:53:55;;;;;;;3.83;3.53;;;17.60;99.90;;;;;;5031986;28;20179;-72
2023/09/21 05:56:20;;;;;;;4.10;3.60;;;17.70;99.90;;;;;;5032335;28;20183;-72
2023/09/21 05:58:46;;;;;;;3.90;3.53;;;17.80;99.90;;;;;;5031900;28;20548;-72
2023/09/21 06:01:13;;;;;;;6.93;4.23;;;17.90;99.90;;;;;;5031708;28;20199;-72
2023/09/21 06:03:39;;;;;;;6.23;4.23;;;17.90;99.90;;;;;;5030601;28;20195;-73
2023/09/21 06:06:07;;;;;;;8.33;4.03;;;18.00;99.90;;;;;;5031126;28;20207;-72
2023/09/21 06:08:39;;;;;;;4.33;3.93;;;18.10;99.90;;;;;;5031876;28;20639;-73
2023/09/21 06:11:04;;;;;;;9.40;4.03;;;18.20;99.90;;;;;;5032541;28;20179;-71
2023/09/21 06:13:31;;;;;;;5.70;3.87;;;18.30;99.90;;;;;;5032372;28;20187;-72
2023/09/21 06:15:57;;;;;;;4.30;3.83;;;18.40;99.90;;;;;;5031392;28;20477;-73
2023/09/21 06:18:23;;;;;;;3.93;3.63;;;18.50;99.90;;;;;;5031701;28;20190;-71
2023/09/21 06:20:49;;;;;;;4.40;3.53;;;18.60;99.90;;;;;;5036344;28;20701;-72
2023/09/21 06:23:17;;;;;;;4.23;3.80;;;18.70;99.90;;;;;;5031555;28;20219;-72
2023/09/21 06:25:43;;;;;;;5.63;3.87;;;18.80;99.90;;;;;;5031219;28;20211;-73
2023/09/21 06:28:09;;;;;;;6.20;3.80;;;18.90;99.90;;;;;;5031593;28;20186;-72
2023/09/21 06:30:34;;;;;;;4.63;3.70;;;19.10;99.90;;;;;;5031065;28;20209;-72
2023/09/21 06:33:01;;;;;;;3.90;3.60;;;19.20;99.90;;;;;;5031319;28;20206;-73
2023/09/21 06:35:27;;;;;;;4.00;3.70;;;19.40;99.90;;;;;;5033023;28;20203;-73
2023/09/21 06:37:55;;;;;;;5.27;4.77;;;19.50;99.90;;;;;;5034191;28;20274;-72
2023/09/21 06:40:22;;;;;;;5.70;4.23;;;19.60;99.90;;;;;;5030757;28;20458;-72
2023/09/21 06:42:48;;;;;;;5.40;4.07;;;19.60;99.90;;;;;;5030003;28;20222;-73
2023/09/21 06:45:13;;;;;;;4.37;3.90;;;19.50;99.90;;;;;;5031161;28;20207;-72
2023/09/21 06:47:39;;;;;;;6.87;4.83;;;19.50;99.90;;;;;;5031346;28;20573;-72
2023/09/21 06:50:09;;;;;;;6.15;4.32;;;19.50;99.90;;;;;;5030786;28;20195;-72
2023/09/21 06:52:35;;;;;;;5.63;4.60;;;19.50;99.90;;;;;;5030949;28;20249;-72
2023/09/21 06:55:00;;;;;;;4.73;3.90;;;19.60;99.90;;;;;;5030952;28;20179;-72
2023/09/21 06:57:28;;;;;;;6.07;4.37;;;19.60;99.90;;;;;;5030786;28;20643;-74
2023/09/21 06:59:54;;;;;;;4.13;3.83;;;19.60;99.90;;;;;;5030570;28;20254;-72
2023/09/21 07:02:24;;;;;;;4.70;4.22;;;19.60;99.90;;;;;;5030939;28;20234;-72
2023/09/21 07:04:50;;;;;;;8.32;7.75;;;19.90;99.90;;;;;;5029532;28;20211;-71
2023/09/21 07:07:15;;;;;;;4.82;3.53;;;20.30;99.90;;;;;;5039305;28;20627;-72
2023/09/21 07:09:41;;;;;;;5.47;3.63;;;20.60;99.90;;;;;;5030724;28;20278;-72
2023/09/21 07:12:07;;;;;;;4.65;3.75;;;20.90;99.90;;;;;;5030834;28;20675;-71
2023/09/21 07:14:35;;;;;;;5.93;4.30;;;21.00;99.90;;;;;;5031335;28;20210;-71
2023/09/21 07:17:01;;;;;;;6.18;3.72;;;21.10;99.90;;;;;;5031171;28;20190;-73
2023/09/21 07:19:28;;;;;;;5.40;4.50;;;21.20;99.90;;;;;;5030759;28;20179;-72
2023/09/21 07:21:54;;;;;;;4.63;3.70;;;21.30;99.90;;;;;;5030511;28;20211;-71
2023/09/21 07:24:19;;;;;;;4.60;3.40;;;21.50;99.90;;;;;;5030924;28;20188;-72
2023/09/21 07:26:45;;;;;;;5.53;3.88;;;21.80;99.90;;;;;;5030656;28;20578;-71
2023/09/21 07:29:11;;;;;;;4.35;3.35;;;22.20;99.90;;;;;;5030781;28;20217;-72
2023/09/21 07:31:37;;;;;;;4.82;3.83;;;22.50;99.90;;;;;;5030537;28;20199;-72
2023/09/21 07:34:03;;;;;;;5.85;3.17;;;22.90;99.90;;;;;;5030198;28;20187;-71
2023/09/21 07:36:29;;;;;;;5.22;3.17;;;23.20;99.90;;;;;;5030877;28;20206;-73
2023/09/21 07:38:55;;;;;;;3.35;3.05;;;23.40;99.90;;;;;;5030788;28;21482;-71
2023/09/21 07:41:21;;;;;;;3.53;3.20;;;23.60;99.90;;;;;;5030452;28;20275;-72
2023/09/21 07:43:50;;;;;;;3.22;2.88;;;23.60;99.90;;;;;;5030394;28;20617;-72
2023/09/21 07:46:16;;;;;;;5.82;3.13;;;23.50;99.90;;;;;;5030789;28;20203;-72
2023/09/21 07:48:41;;;;;;;3.70;3.17;;;23.50;99.90;;;;;;5030573;28;20717;-72
2023/09/21 07:51:08;;;;;;;3.90;3.45;;;23.40;99.90;;;;;;5030396;28;20176;-72
2023/09/21 07:53:35;;;;;;;3.83;3.25;;;23.20;99.90;;;;;;5030630;28;20245;-71
2023/09/21 07:56:10;;;;;;;5.50;4.13;;;23.10;99.90;;;;;;5033749;28;20233;-73
2023/09/21 07:58:36;;;;;;;4.53;4.13;;;23.20;99.90;;;;;;5034433;28;20183;-71
2023/09/21 08:01:02;;;;;;;5.68;3.00;;;23.50;99.90;;;;;;5034014;28;20179;-69
2023/09/21 08:03:28;;;;;;;3.25;2.90;;;23.90;99.90;;;;;;5034272;28;20295;-71
2023/09/21 08:05:54;;;;;;;4.55;3.10;;;24.30;99.90;;;;;;5032663;28;20287;-70
2023/09/21 08:08:20;;;;;;;4.10;2.50;;;24.50;99.90;;;;;;5034221;28;20673;-71
2023/09/21 08:10:47;;;;;;;3.58;2.70;;;24.50;99.90;;;;;;5032507;28;20190;-71
2023/09/21 08:13:12;;;;;;;3.35;3.05;;;24.40;99.90;;;;;;5034048;28;20199;-71
2023/09/21 08:15:38;;;;;;;5.05;2.95;;;24.20;99.90;;;;;;5034014;28;20171;-71
2023/09/21 08:18:07;;;;;;;3.60;3.10;;;24.10;99.90;;;;;;5033796;28;20207;-71
2023/09/21 08:20:33;;;;;;;4.53;3.30;;;24.20;99.90;;;;;;5033976;28;20180;-71
2023/09/21 08:22:59;;;;;;;4.50;3.28;;;24.50;99.90;;;;;;5035878;28;20203;-71
2023/09/21 08:25:24;;;;;;;3.17;2.92;;;24.50;99.90;;;;;;5037562;28;20234;-72
2023/09/21 08:27:50;;;;;;;3.88;2.90;;;24.40;99.90;;;;;;5033608;28;20183;-72
2023/09/21 08:30:15;;;;;;;8.63;3.03;;;24.10;99.90;;;;;;5033648;28;20180;-71
2023/09/21 08:32:41;;;;;;;5.00;3.00;;;24.00;99.90;;;;;;5033599;28;20621;-70
2023/09/21 08:35:08;;;;;;;4.10;3.28;;;24.00;99.90;;;;;;5032261;28;20249;-73
2023/09/21 08:37:35;;;;;;;4.28;3.40;;;24.20;99.90;;;;;;5032016;28;20338;-71
2023/09/21 08:40:06;;;;;;;3.65;3.20;;;24.30;99.90;;;;;;5036833;28;20598;-70
2023/09/21 08:42:32;;;;;;;8.02;3.42;;;24.50;99.90;;;;;;5033634;28;20274;-71
2023/09/21 08:44:59;;;;;;;3.97;3.63;;;24.90;99.90;;;;;;5031804;28;20729;-71
2023/09/21 08:47:28;;;;;;;7.03;6.50;;;25.20;99.90;;;;;;5033913;28;20183;-72
2023/09/21 08:49:53;;;;;;;7.95;7.53;;;25.50;99.90;;;;;;5032791;28;20175;-72
2023/09/21 08:52:20;;;;;;;10.48;6.45;;;25.60;99.90;;;;;;5034558;28;20253;-71
2023/09/21 08:54:46;;;;;;;7.88;7.38;;;25.70;99.90;;;;;;5035516;28;20229;-72
2023/09/21 08:57:13;;;;;;;6.95;6.45;;;25.60;99.90;;;;;;5033137;28;20180;-71
2023/09/21 08:59:43;;;;;;;5.95;3.70;;;25.20;99.90;;;;;;5033200;28;20669;-72
2023/09/21 09:02:14;;;;;;;7.05;6.55;;;24.80;99.90;;;;;;5033149;28;20667;-71
2023/09/21 09:04:43;;;;;;;6.40;4.13;;;24.40;99.90;;;;;;5033013;28;20258;-71
2023/09/21 09:07:11;;;;;;;6.85;3.10;;;24.10;99.90;;;;;;5032875;28;20331;-72
2023/09/21 09:09:39;;;;;;;6.88;3.22;;;23.90;99.90;;;;;;5036698;28;20199;-71
2023/09/21 09:12:24;;;;;;;3.40;3.10;;;23.70;99.90;;;;;;5032879;28;20202;-72
2023/09/21 09:14:50;;;;;;;4.00;3.05;;;23.60;99.90;;;;;;5032891;28;20168;-73
2023/09/21 09:17:17;;;;;;;4.82;3.38;;;23.60;99.90;;;;;;5031788;28;20261;-71
2023/09/21 09:19:43;;;;;;;4.88;3.08;;;23.50;99.90;;;;;;5032652;28;20264;-71
2023/09/21 09:22:16;;;;;;;5.00;3.30;;;23.30;99.90;;;;;;5032639;28;20703;-72
2023/09/21 09:24:47;;;;;;;6.97;3.50;;;23.30;99.90;;;;;;5031490;28;20187;-71
2023/09/21 09:27:13;;;;;;;7.80;3.88;;;23.20;99.90;;;;;;5039616;28;20438;-72
2023/09/21 09:29:51;;;;;;;6.35;3.47;;;23.40;99.90;;;;;;5032512;28;20175;-72
2023/09/21 09:32:21;;;;;;;10.00;3.95;;;23.50;99.90;;;;;;5032573;28;20195;-73
2023/09/21 09:34:47;;;;;;;5.03;3.40;;;23.60;99.90;;;;;;5032596;28;20171;-73
2023/09/21 09:37:15;;;;;;;5.20;2.92;;;23.60;99.90;;;;;;5037059;28;20375;-71
2023/09/21 09:39:45;;;;;;;4.07;3.08;;;23.60;99.90;;;;;;5035951;28;20227;-71
2023/09/21 09:42:13;;;;;;;3.08;2.85;;;23.60;99.90;;;;;;5028598;28;20562;-71
2023/09/21 09:44:46;;;;;;;6.10;3.05;;;23.60;99.90;;;;;;5036573;28;20179;-70
2023/09/21 09:47:16;;;;;;;3.33;2.90;;;23.40;99.90;;;;;;5032637;28;20175;-72
2023/09/21 09:49:46;;;;;;;4.18;3.15;;;23.50;99.90;;;;;;5032082;28;20182;-72
2023/09/21 09:52:18;;;;;;;4.03;2.72;;;23.40;99.90;;;;;;5024447;28;20535;-71
2023/09/21 09:54:46;;;;;;;3.45;3.10;;;23.40;99.90;;;;;;5039386;28;20306;-71
2023/09/21 09:57:13;;;;;;;4.82;3.05;;;23.30;99.90;;;;;;5032312;28;20222;-71
2023/09/21 09:59:40;;;;;;;4.65;3.22;;;23.30;99.90;;;;;;5030695;28;20184;-70
2023/09/21 10:02:13;;;;;;;3.08;2.78;;;23.30;99.90;;;;;;5031688;28;20253;-72
2023/09/21 10:04:40;;;;;;;7.93;2.90;;;23.40;99.90;;;;;;5039784;28;20186;-73
2023/09/21 10:07:06;;;;;;;11.35;3.55;;;23.60;99.90;;;;;;5032334;28;20210;-70
2023/09/21 10:09:32;;;;;;;6.03;3.50;;;23.70;99.90;;;;;;5031710;28;20569;-70
2023/09/21 10:12:00;;;;;;;3.00;2.70;;;23.80;99.90;;;;;;5031478;28;20188;-71
2023/09/21 10:14:25;;;;;;;4.57;2.88;;;23.80;99.90;;;;;;5031975;28;20667;-71
2023/09/21 10:16:56;;;;;;;6.22;2.95;;;23.70;99.90;;;;;;5031630;28;20206;-72
2023/09/21 10:19:26;;;;;;;6.25;2.88;;;23.50;99.90;;;;;;5031714;28;20706;-73
2023/09/21 10:22:20;;;;;;;5.63;2.78;;;23.40;99.90;;;;;;5037801;28;20209;-72
2023/09/21 10:24:51;;;;;;;9.63;3.10;;;23.40;99.90;;;;;;5031637;28;20189;-71
2023/09/21 10:27:20;;;;;;;4.28;2.85;;;23.50;99.90;;;;;;5036219;28;20179;-71
2023/09/21 10:29:53;;;;;;;4.93;2.78;;;23.50;99.90;;;;;;5032965;28;20655;-71
2023/09/21 10:32:24;;;;;;;5.28;3.03;;;23.60;99.90;;;;;;5031426;28;20234;-72
2023/09/21 10:34:50;;;;;;;4.63;3.08;;;23.50;99.90;;;;;;5030374;28;20178;-72
2023/09/21 10:37:26;;;;;;;6.75;3.00;;;23.50;99.90;;;;;;5031491;28;20176;-70
2023/09/21 10:39:59;;;;;;;6.93;3.08;;;23.50;99.90;;;;;;5031327;28;20565;-71
2023/09/21 10:42:30;;;;;;;5.63;3.00;;;23.30;99.90;;;;;;5031241;28;20563;-71
2023/09/21 10:45:00;;;;;;;2.88;2.67;;;23.20;99.90;;;;;;5031310;28;20178;-70
2023/09/21 10:47:35;;;;;;;4.63;3.00;;;23.10;99.90;;;;;;5031508;28;20211;-72
2023/09/21 10:50:07;;;;;;;3.83;3.15;;;23.10;99.90;;;;;;5030758;28;20623;-71
2023/09/21 10:52:33;;;;;;;3.30;2.67;;;23.10;99.90;;;;;;5031192;28;20206;-71
2023/09/21 10:54:59;;;;;;;3.50;3.20;;;23.00;99.90;;;;;;5029852;28;20226;-71
2023/09/21 10:57:32;;;;;;;4.20;3.53;;;23.00;99.90;;;;;;5032333;28;20182;-73
2023/09/21 11:00:00;;;;;;;3.92;3.28;;;23.00;99.90;;;;;;5031653;28;20217;-73
2023/09/21 11:02:31;;;;;;;4.93;3.00;;;22.90;99.90;;;;;;5031404;28;20627;-73
2023/09/21 11:04:58;;;;;;;5.75;3.47;;;23.00;99.90;;;;;;5031022;28;20203;-74
2023/09/21 11:07:24;;;;;;;3.10;2.90;;;23.00;99.90;;;;;;5031325;28;20553;-71
2023/09/21 11:09:50;;;;;;;4.32;3.28;;;23.00;99.90;;;;;;5030993;28;20180;-73
2023/09/21 11:12:17;;;;;;;8.57;3.35;;;23.00;99.90;;;;;;5030959;28;20682;-73
2023/09/21 11:14:48;;;;;;;4.03;3.22;;;23.00;99.90;;;;;;5030991;28;20183;-73
2023/09/21 11:17:18;;;;;;;4.07;3.20;;;23.00;99.90;;;;;;5025280;28;20647;-73
2023/09/21 11:19:45;;;;;;;4.18;3.35;;;23.00;99.90;;;;;;5034563;28;20647;-72
2023/09/21 11:22:12;;;;;;;6.00;3.28;;;23.10;99.90;;;;;;5030241;28;20593;-74
2023/09/21 11:24:38;;;;;;;5.53;3.35;;;23.10;99.90;;;;;;5035520;28;20205;-72
2023/09/21 11:27:11;;;;;;;3.35;3.05;;;23.00;99.90;;;;;;5030368;28;20207;-73
2023/09/21 11:29:39;;;;;;;5.93;3.75;;;23.00;99.90;;;;;;5031657;28;20559;-72
2023/09/21 11:32:17;;;;;;;3.63;3.28;;;23.00;99.90;;;;;;5039672;28;20199;-74
2023/09/21 11:34:44;;;;;;;3.70;3.20;;;23.10;99.90;;;;;;5035005;28;20175;-73
2023/09/21 11:37:12;;;;;;;6.13;3.72;;;23.10;99.90;;;;;;5034424;28;20179;-71
2023/09/21 11:39:39;;;;;;;4.10;3.30;;;23.10;99.90;;;;;;5034739;28;20541;-74
2023/09/21 11:42:10;;;;;;;2.88;2.63;;;23.20;99.90;;;;;;5033966;28;20199;-72
2023/09/21 11:44:37;;;;;;;3.60;3.10;;;23.20;99.90;;;;;;5034652;28;20191;-73
2023/09/21 11:47:07;;;;;;;4.43;2.80;;;23.20;99.90;;;;;;5041521;28;20569;-72
2023/09/21 11:49:43;;;;;;;3.28;2.78;;;23.30;99.90;;;;;;5034478;28;20172;-73
2023/09/21 11:52:10;;;;;;;3.38;2.53;;;23.40;99.90;;;;;;5034299;28;20203;-72
2023/09/21 11:54:38;;;;;;;6.97;3.45;;;23.50;99.90;;;;;;5034395;28;20190;-73
2023/09/21 11:57:04;;;;;;;19.83;4.85;;;23.50;99.90;;;;;;5034059;28;20190;-72
2023/09/21 11:59:42;;;;;;;7.75;3.08;;;23.50;99.90;;;;;;5034471;28;20203;-73
2023/09/21 12:02:10;;;;;;;4.35;3.13;;;23.50;99.90;;;;;;5033937;28;20217;-73
2023/09/21 12:04:39;;;;;;;2.75;2.55;;;23.60;99.90;;;;;;5034160;28;20186;-71
2023/09/21 12:07:09;;;;;;;3.15;2.90;;;23.50;99.90;;;;;;5034135;28;20287;-71
2023/09/21 12:09:40;;;;;;;4.32;3.45;;;23.50;99.90;;;;;;5034333;28;20533;-71
2023/09/21 12:12:07;;;;;;;8.57;3.25;;;23.50;99.90;;;;;;5034328;28;20207;-72
2023/09/21 12:14:34;;;;;;;3.50;3.20;;;23.50;99.90;;;;;;5034044;28;20182;-72
2023/09/21 12:17:09;;;;;;;5.18;2.95;;;23.40;99.90;;;;;;5033730;28;20517;-72
2023/09/21 12:19:36;;;;;;;5.95;2.83;;;23.20;99.90;;;;;;5033656;28;20183;-71
2023/09/21 12:22:05;;;;;;;3.15;2.70;;;23.10;99.90;;;;;;5033410;28;20206;-71
2023/09/21 12:24:34;;;;;;;3.22;3.00;;;23.00;99.90;;;;;;5033680;28;20180;-72
2023/09/21 12:27:03;;;;;;;3.17;2.88;;;23.00;99.90;;;;;;5036145;28;20261;-72
2023/09/21 12:29:29;;;;;;;3.45;3.15;;;22.90;99.90;;;;;;5033493;28;20239;-72
2023/09/21 12:31:56;;;;;;;3.90;3.40;;;22.90;99.90;;;;;;5033438;28;20207;-72
2023/09/21 12:34:22;;;;;;;4.80;3.22;;;22.90;99.90;;;;;;5032039;28;20277;-71
2023/09/21 12:36:49;;;;;;;305.17;42.40;;;22.90;99.90;;;;;;5033626;28;20609;-72
2023/09/21 12:39:15;;;;;;;129.68;21.05;;;23.00;99.90;;;;;;5036517;28;20206;-73
2023/09/21 12:41:43;;;;;;;5.43;3.40;;;23.10;99.90;;;;;;5036909;28;20227;-72
2023/09/21 12:44:10;;;;;;;6.18;3.28;;;23.10;99.90;;;;;;5032969;28;20627;-72
2023/09/21 12:46:37;;;;;;;3.95;3.53;;;23.20;99.90;;;;;;5033381;28;20214;-73
2023/09/21 12:49:04;;;;;;;3.97;3.30;;;23.30;99.90;;;;;;5032999;28;20183;-73
2023/09/21 12:51:30;;;;;;;5.65;3.30;;;23.40;99.90;;;;;;5033301;28;20202;-72